sensor_id;sensor_type;location;lat;lon;timestamp;temperature;humidity
16767;DHT22;8501;49.926;8.404;2023-02-28T00:00:09;1.90;99.90
16767;DHT22;8501;49.926;8.404;2023-02-28T00:02:37;1.80;99.90
16767;DHT22;8501;49.926;8.404;2023-02-28T00:05:03;1.70;99.90
16767;DHT22;8501;49.926;8.404;2023-02-28T00:07:30;1.70;99.90
16767;DHT22;8501;49.926;8.404;2023-02-28T00:09:55;1.70;99.90
16767;DHT22;8501;49.926;8.404;2023-02-28T00:12:21;1.70;99.90
16767;DHT22;8501;49.926;8.404;2023-02-28T00:14:47;1.60;99.90
16767;DHT22;8501;49.926;8.404;2023-02-28T00:17:12;1.70;99.90
16767;DHT22;8501;49.926;8.404;2023-02-28T00:19:38;1.70;99.90
16767;DHT22;8501;49.926;8.404;2023-02-28T00:22:03;1.70;99.90
16767;DHT22;8501;49.926;8.404;2023-02-28T00:24:29;1.60;99.90
16767;DHT22;8501;49.926;8.404;2023-02-28T00:26:54;1.70;99.90
16767;DHT22;8501;49.926;8.404;2023-02-28T00:29:20;1.70;99.90
16767;DHT22;8501;49.926;8.404;2023-02-28T00:31:45;1.60;99.90
16767;DHT22;8501;49.926;8.404;2023-02-28T00:34:10;1.80;99.90
16767;DHT22;8501;49.926;8.404;2023-02-28T00:36:36;1.80;99.90
16767;DHT22;8501;49.926;8.404;2023-02-28T00:39:02;1.80;99.90
16767;DHT22;8501;49.926;8.404;2023-02-28T00:41:27;1.70;99.90
16767;DHT22;8501;49.926;8.404;2023-02-28T00:43:52;1.70;99.90
16767;DHT22;8501;49.926;8.404;2023-02-28T00:46:18;1.70;99.90
16767;DHT22;8501;49.926;8.404;2023-02-28T00:48:43;1.60;99.90
16767;DHT22;8501;49.926;8.404;2023-02-28T00:51:09;1.70;99.90
16767;DHT22;8501;49.926;8.404;2023-02-28T00:53:35;1.70;99.90
16767;DHT22;8501;49.926;8.404;2023-02-28T00:56:02;1.70;99.90
16767;DHT22;8501;49.926;8.404;2023-02-28T00:58:27;1.70;99.90
16767;DHT22;8501;49.926;8.404;2023-02-28T01:00:53;1.70;99.90
16767;DHT22;8501;49.926;8.404;2023-02-28T01:03:20;1.70;99.90
16767;DHT22;8501;49.926;8.404;2023-02-28T01:05:46;1.60;99.90
16767;DHT22;8501;49.926;8.404;2023-02-28T01:08:13;1.70;99.90
16767;DHT22;8501;49.926;8.404;2023-02-28T01:10:39;1.70;99.90
16767;DHT22;8501;49.926;8.404;2023-02-28T01:13:05;1.70;99.90
16767;DHT22;8501;49.926;8.404;2023-02-28T01:15:31;1.70;99.90
16767;DHT22;8501;49.926;8.404;2023-02-28T01:17:57;1.70;99.90
16767;DHT22;8501;49.926;8.404;2023-02-28T01:20:23;1.70;99.90
16767;DHT22;8501;49.926;8.404;2023-02-28T01:22:48;1.60;99.90
16767;DHT22;8501;49.926;8.404;2023-02-28T01:25:14;1.60;99.90
16767;DHT22;8501;49.926;8.404;2023-02-28T01:27:39;1.60;99.90
16767;DHT22;8501;49.926;8.404;2023-02-28T01:30:07;1.60;99.90
16767;DHT22;8501;49.926;8.404;2023-02-28T01:32:32;1.60;99.90
16767;DHT22;8501;49.926;8.404;2023-02-28T01:34:58;1.60;99.90
16767;DHT22;8501;49.926;8.404;2023-02-28T01:37:23;1.60;99.90
16767;DHT22;8501;49.926;8.404;2023-02-28T01:39:49;1.50;99.90
16767;DHT22;8501;49.926;8.404;2023-02-28T01:42:14;1.50;99.90
16767;DHT22;8501;49.926;8.404;2023-02-28T01:47:34;1.40;99.90
16767;DHT22;8501;49.926;8.404;2023-02-28T01:50:04;1.40;99.90
16767;DHT22;8501;49.926;8.404;2023-02-28T01:52:31;1.40;99.90
16767;DHT22;8501;49.926;8.404;2023-02-28T01:54:59;1.30;99.90
16767;DHT22;8501;49.926;8.404;2023-02-28T01:57:30;1.30;99.90
16767;DHT22;8501;49.926;8.404;2023-02-28T02:00:09;1.20;99.90
16767;DHT22;8501;49.926;8.404;2023-02-28T02:02:36;1.30;99.90
16767;DHT22;8501;49.926;8.404;2023-02-28T02:05:15;1.30;99.90
16767;DHT22;8501;49.926;8.404;2023-02-28T02:07:43;1.30;99.90
16767;DHT22;8501;49.926;8.404;2023-02-28T02:10:16;1.20;99.90
16767;DHT22;8501;49.926;8.404;2023-02-28T02:13:05;1.20;99.90
16767;DHT22;8501;49.926;8.404;2023-02-28T02:15:49;1.00;99.90
16767;DHT22;8501;49.926;8.404;2023-02-28T02:19:10;1.10;99.90
16767;DHT22;8501;49.926;8.404;2023-02-28T02:21:47;1.20;99.90
16767;DHT22;8501;49.926;8.404;2023-02-28T02:27:59;1.10;99.90
16767;DHT22;8501;49.926;8.404;2023-02-28T02:34:17;1.00;99.90
16767;DHT22;8501;49.926;8.404;2023-02-28T02:36:53;1.00;99.90
16767;DHT22;8501;49.926;8.404;2023-02-28T02:39:31;1.00;99.90
16767;DHT22;8501;49.926;8.404;2023-02-28T02:42:01;0.90;99.90
16767;DHT22;8501;49.926;8.404;2023-02-28T02:44:53;1.00;99.90
16767;DHT22;8501;49.926;8.404;2023-02-28T02:47:24;1.00;99.90
16767;DHT22;8501;49.926;8.404;2023-02-28T02:49:53;1.00;99.90
16767;DHT22;8501;49.926;8.404;2023-02-28T02:52:32;1.00;99.90
16767;DHT22;8501;49.926;8.404;2023-02-28T02:55:02;0.90;99.90
16767;DHT22;8501;49.926;8.404;2023-02-28T02:58:02;0.90;99.90
16767;DHT22;8501;49.926;8.404;2023-02-28T03:00:33;0.90;99.90
16767;DHT22;8501;49.926;8.404;2023-02-28T03:03:01;0.80;99.90
16767;DHT22;8501;49.926;8.404;2023-02-28T03:05:33;0.80;99.90
16767;DHT22;8501;49.926;8.404;2023-02-28T03:08:03;0.70;99.90
16767;DHT22;8501;49.926;8.404;2023-02-28T03:13:12;0.70;99.90
16767;DHT22;8501;49.926;8.404;2023-02-28T03:27:49;0.60;99.90
16767;DHT22;8501;49.926;8.404;2023-02-28T03:30:47;0.60;99.90
16767;DHT22;8501;49.926;8.404;2023-02-28T03:36:13;0.60;99.90
16767;DHT22;8501;49.926;8.404;2023-02-28T03:38:51;0.60;99.90
16767;DHT22;8501;49.926;8.404;2023-02-28T03:41:27;0.60;99.90
16767;DHT22;8501;49.926;8.404;2023-02-28T03:44:10;0.50;99.90
16767;DHT22;8501;49.926;8.404;2023-02-28T03:46:45;0.50;99.90
16767;DHT22;8501;49.926;8.404;2023-02-28T03:49:28;0.50;99.90
16767;DHT22;8501;49.926;8.404;2023-02-28T03:51:59;0.60;99.90
16767;DHT22;8501;49.926;8.404;2023-02-28T03:54:33;0.50;99.90
16767;DHT22;8501;49.926;8.404;2023-02-28T03:59:35;0.50;99.90
16767;DHT22;8501;49.926;8.404;2023-02-28T04:02:03;0.50;99.90
16767;DHT22;8501;49.926;8.404;2023-02-28T04:04:28;0.40;99.90
16767;DHT22;8501;49.926;8.404;2023-02-28T04:07:07;0.40;99.90
16767;DHT22;8501;49.926;8.404;2023-02-28T04:09:33;0.50;99.90
16767;DHT22;8501;49.926;8.404;2023-02-28T04:11:59;0.50;99.90
16767;DHT22;8501;49.926;8.404;2023-02-28T04:14:25;0.50;99.90
16767;DHT22;8501;49.926;8.404;2023-02-28T04:16:51;0.40;99.90
16767;DHT22;8501;49.926;8.404;2023-02-28T04:19:18;0.40;99.90
16767;DHT22;8501;49.926;8.404;2023-02-28T04:21:49;0.40;99.90
16767;DHT22;8501;49.926;8.404;2023-02-28T04:24:18;0.30;99.90
16767;DHT22;8501;49.926;8.404;2023-02-28T04:26:49;0.30;99.90
16767;DHT22;8501;49.926;8.404;2023-02-28T04:29:33;0.30;99.90
16767;DHT22;8501;49.926;8.404;2023-02-28T04:32:00;0.30;99.90
16767;DHT22;8501;49.926;8.404;2023-02-28T04:34:27;0.30;99.90
16767;DHT22;8501;49.926;8.404;2023-02-28T04:36:53;0.40;99.90
16767;DHT22;8501;49.926;8.404;2023-02-28T04:39:24;0.30;99.90
16767;DHT22;8501;49.926;8.404;2023-02-28T04:41:50;0.20;99.90
16767;DHT22;8501;49.926;8.404;2023-02-28T04:44:16;0.30;99.90
16767;DHT22;8501;49.926;8.404;2023-02-28T04:46:42;0.20;99.90
16767;DHT22;8501;49.926;8.404;2023-02-28T04:49:10;0.20;99.90
16767;DHT22;8501;49.926;8.404;2023-02-28T04:51:36;0.10;99.90
16767;DHT22;8501;49.926;8.404;2023-02-28T04:54:02;0.10;99.90
16767;DHT22;8501;49.926;8.404;2023-02-28T04:56:27;0.20;99.90
16767;DHT22;8501;49.926;8.404;2023-02-28T04:58:53;0.20;99.90
16767;DHT22;8501;49.926;8.404;2023-02-28T05:01:30;0.20;99.90
16767;DHT22;8501;49.926;8.404;2023-02-28T05:03:58;0.20;99.90
16767;DHT22;8501;49.926;8.404;2023-02-28T05:06:26;0.30;99.90
16767;DHT22;8501;49.926;8.404;2023-02-28T05:08:52;0.20;99.90
16767;DHT22;8501;49.926;8.404;2023-02-28T05:11:27;0.30;99.90
16767;DHT22;8501;49.926;8.404;2023-02-28T05:13:54;0.20;99.90
16767;DHT22;8501;49.926;8.404;2023-02-28T05:16:20;0.30;99.90
16767;DHT22;8501;49.926;8.404;2023-02-28T05:18:46;0.30;99.90
16767;DHT22;8501;49.926;8.404;2023-02-28T05:21:34;0.20;99.90
16767;DHT22;8501;49.926;8.404;2023-02-28T05:24:11;0.20;99.90
16767;DHT22;8501;49.926;8.404;2023-02-28T05:26:42;0.30;99.90
16767;DHT22;8501;49.926;8.404;2023-02-28T05:29:09;0.30;99.90
16767;DHT22;8501;49.926;8.404;2023-02-28T05:31:37;0.20;99.90
16767;DHT22;8501;49.926;8.404;2023-02-28T05:34:03;0.20;99.90
16767;DHT22;8501;49.926;8.404;2023-02-28T05:36:29;0.10;99.90
16767;DHT22;8501;49.926;8.404;2023-02-28T05:38:55;0.10;99.90
16767;DHT22;8501;49.926;8.404;2023-02-28T05:41:21;0.20;99.90
16767;DHT22;8501;49.926;8.404;2023-02-28T05:43:47;0.20;99.90
16767;DHT22;8501;49.926;8.404;2023-02-28T05:46:14;0.20;99.90
16767;DHT22;8501;49.926;8.404;2023-02-28T05:48:41;0.20;99.90
16767;DHT22;8501;49.926;8.404;2023-02-28T05:51:08;0.20;99.90
16767;DHT22;8501;49.926;8.404;2023-02-28T05:53:34;0.20;99.90
16767;DHT22;8501;49.926;8.404;2023-02-28T05:56:00;0.20;99.90
16767;DHT22;8501;49.926;8.404;2023-02-28T05:58:25;0.20;99.90
16767;DHT22;8501;49.926;8.404;2023-02-28T06:00:54;0.20;99.90
16767;DHT22;8501;49.926;8.404;2023-02-28T06:03:20;0.20;99.90
16767;DHT22;8501;49.926;8.404;2023-02-28T06:05:46;0.10;99.90
16767;DHT22;8501;49.926;8.404;2023-02-28T06:08:11;0.10;99.90
16767;DHT22;8501;49.926;8.404;2023-02-28T06:10:37;0.10;99.90
16767;DHT22;8501;49.926;8.404;2023-02-28T06:13:04;0.10;99.90
16767;DHT22;8501;49.926;8.404;2023-02-28T06:15:30;0.10;99.90
16767;DHT22;8501;49.926;8.404;2023-02-28T06:17:56;0.10;99.90
16767;DHT22;8501;49.926;8.404;2023-02-28T06:20:23;0.10;99.90
16767;DHT22;8501;49.926;8.404;2023-02-28T06:22:49;0.10;99.90
16767;DHT22;8501;49.926;8.404;2023-02-28T06:25:16;0.10;99.90
16767;DHT22;8501;49.926;8.404;2023-02-28T06:27:42;0.20;99.90
16767;DHT22;8501;49.926;8.404;2023-02-28T06:30:09;0.10;99.90
16767;DHT22;8501;49.926;8.404;2023-02-28T06:32:35;0.10;99.90
16767;DHT22;8501;49.926;8.404;2023-02-28T06:35:01;0.20;99.90
16767;DHT22;8501;49.926;8.404;2023-02-28T06:37:27;0.20;99.90
16767;DHT22;8501;49.926;8.404;2023-02-28T06:39:54;0.20;99.90
16767;DHT22;8501;49.926;8.404;2023-02-28T06:42:22;0.30;99.90
16767;DHT22;8501;49.926;8.404;2023-02-28T06:44:48;0.30;99.90
16767;DHT22;8501;49.926;8.404;2023-02-28T06:47:13;0.30;99.90
16767;DHT22;8501;49.926;8.404;2023-02-28T06:49:39;0.30;99.90
16767;DHT22;8501;49.926;8.404;2023-02-28T06:52:05;0.20;99.90
16767;DHT22;8501;49.926;8.404;2023-02-28T06:54:31;0.30;99.90
16767;DHT22;8501;49.926;8.404;2023-02-28T06:56:58;0.30;99.90
16767;DHT22;8501;49.926;8.404;2023-02-28T06:59:23;0.30;99.90
16767;DHT22;8501;49.926;8.404;2023-02-28T07:01:49;0.30;99.90
16767;DHT22;8501;49.926;8.404;2023-02-28T07:04:14;0.30;99.90
16767;DHT22;8501;49.926;8.404;2023-02-28T07:06:40;0.40;99.90
16767;DHT22;8501;49.926;8.404;2023-02-28T07:09:06;0.40;99.90
16767;DHT22;8501;49.926;8.404;2023-02-28T07:11:31;0.40;99.90
16767;DHT22;8501;49.926;8.404;2023-02-28T07:13:57;0.40;99.90
16767;DHT22;8501;49.926;8.404;2023-02-28T07:16:25;0.50;99.90
16767;DHT22;8501;49.926;8.404;2023-02-28T07:18:53;0.50;99.90
16767;DHT22;8501;49.926;8.404;2023-02-28T07:21:19;0.60;99.90
16767;DHT22;8501;49.926;8.404;2023-02-28T07:23:44;0.60;99.90
16767;DHT22;8501;49.926;8.404;2023-02-28T07:26:15;0.60;99.90
16767;DHT22;8501;49.926;8.404;2023-02-28T07:28:43;0.60;99.90
16767;DHT22;8501;49.926;8.404;2023-02-28T07:31:09;0.60;99.90
16767;DHT22;8501;49.926;8.404;2023-02-28T07:33:36;0.70;99.90
16767;DHT22;8501;49.926;8.404;2023-02-28T07:36:03;0.80;99.90
16767;DHT22;8501;49.926;8.404;2023-02-28T07:38:29;0.90;99.90
16767;DHT22;8501;49.926;8.404;2023-02-28T07:40:55;1.00;99.90
16767;DHT22;8501;49.926;8.404;2023-02-28T07:43:20;1.00;99.90
16767;DHT22;8501;49.926;8.404;2023-02-28T07:45:46;1.10;99.90
16767;DHT22;8501;49.926;8.404;2023-02-28T07:48:11;1.20;99.90
16767;DHT22;8501;49.926;8.404;2023-02-28T07:50:37;1.50;99.90
16767;DHT22;8501;49.926;8.404;2023-02-28T07:53:03;1.50;99.90
16767;DHT22;8501;49.926;8.404;2023-02-28T07:55:29;1.60;99.90
16767;DHT22;8501;49.926;8.404;2023-02-28T07:57:56;1.70;99.90
16767;DHT22;8501;49.926;8.404;2023-02-28T08:00:23;1.80;99.90
16767;DHT22;8501;49.926;8.404;2023-02-28T08:02:48;1.80;99.90
16767;DHT22;8501;49.926;8.404;2023-02-28T08:05:14;1.80;99.90
16767;DHT22;8501;49.926;8.404;2023-02-28T08:07:40;1.80;99.90
16767;DHT22;8501;49.926;8.404;2023-02-28T08:10:06;1.80;99.90
16767;DHT22;8501;49.926;8.404;2023-02-28T08:12:32;1.90;99.90
16767;DHT22;8501;49.926;8.404;2023-02-28T08:14:57;1.90;99.90
16767;DHT22;8501;49.926;8.404;2023-02-28T08:17:23;1.90;99.90
16767;DHT22;8501;49.926;8.404;2023-02-28T08:19:49;1.90;99.90
16767;DHT22;8501;49.926;8.404;2023-02-28T08:22:14;1.90;99.90
16767;DHT22;8501;49.926;8.404;2023-02-28T08:24:41;1.90;99.90
16767;DHT22;8501;49.926;8.404;2023-02-28T08:27:08;1.80;99.90
16767;DHT22;8501;49.926;8.404;2023-02-28T08:29:33;1.80;99.90
16767;DHT22;8501;49.926;8.404;2023-02-28T08:31:59;1.90;99.90
16767;DHT22;8501;49.926;8.404;2023-02-28T08:34:24;1.90;99.90
16767;DHT22;8501;49.926;8.404;2023-02-28T08:36:50;2.00;99.90
16767;DHT22;8501;49.926;8.404;2023-02-28T08:39:15;2.00;99.90
16767;DHT22;8501;49.926;8.404;2023-02-28T08:41:42;2.10;99.90
16767;DHT22;8501;49.926;8.404;2023-02-28T08:44:07;2.20;99.90
16767;DHT22;8501;49.926;8.404;2023-02-28T08:46:33;2.30;99.90
16767;DHT22;8501;49.926;8.404;2023-02-28T08:48:59;2.40;99.90
16767;DHT22;8501;49.926;8.404;2023-02-28T08:51:27;2.50;99.90
16767;DHT22;8501;49.926;8.404;2023-02-28T08:53:58;2.60;99.90
16767;DHT22;8501;49.926;8.404;2023-02-28T08:56:26;2.50;99.90
16767;DHT22;8501;49.926;8.404;2023-02-28T08:58:51;2.40;99.90
16767;DHT22;8501;49.926;8.404;2023-02-28T09:01:22;2.40;99.90
16767;DHT22;8501;49.926;8.404;2023-02-28T09:03:50;2.50;99.90
16767;DHT22;8501;49.926;8.404;2023-02-28T09:06:17;2.70;99.90
16767;DHT22;8501;49.926;8.404;2023-02-28T09:08:43;2.80;99.90
16767;DHT22;8501;49.926;8.404;2023-02-28T09:11:09;2.90;99.90
16767;DHT22;8501;49.926;8.404;2023-02-28T09:13:35;2.90;99.90
16767;DHT22;8501;49.926;8.404;2023-02-28T09:16:02;3.00;99.90
16767;DHT22;8501;49.926;8.404;2023-02-28T09:18:29;3.10;99.90
16767;DHT22;8501;49.926;8.404;2023-02-28T09:20:55;3.10;99.90
16767;DHT22;8501;49.926;8.404;2023-02-28T09:23:21;3.10;99.90
16767;DHT22;8501;49.926;8.404;2023-02-28T09:25:50;3.20;99.90
16767;DHT22;8501;49.926;8.404;2023-02-28T09:28:16;3.30;99.90
16767;DHT22;8501;49.926;8.404;2023-02-28T09:30:43;3.30;99.90
16767;DHT22;8501;49.926;8.404;2023-02-28T09:33:09;3.40;99.90
16767;DHT22;8501;49.926;8.404;2023-02-28T09:35:35;3.40;99.90
16767;DHT22;8501;49.926;8.404;2023-02-28T09:38:02;3.50;99.90
16767;DHT22;8501;49.926;8.404;2023-02-28T09:40:28;3.50;99.90
16767;DHT22;8501;49.926;8.404;2023-02-28T09:42:55;3.50;99.90
16767;DHT22;8501;49.926;8.404;2023-02-28T09:45:26;3.60;99.90
16767;DHT22;8501;49.926;8.404;2023-02-28T09:47:57;3.70;99.90
16767;DHT22;8501;49.926;8.404;2023-02-28T09:50:31;3.70;99.90
16767;DHT22;8501;49.926;8.404;2023-02-28T09:52:59;3.80;99.90
16767;DHT22;8501;49.926;8.404;2023-02-28T09:55:33;3.80;99.90
16767;DHT22;8501;49.926;8.404;2023-02-28T09:58:01;3.80;99.90
16767;DHT22;8501;49.926;8.404;2023-02-28T10:00:37;3.80;99.90
16767;DHT22;8501;49.926;8.404;2023-02-28T10:03:25;3.80;99.90
16767;DHT22;8501;49.926;8.404;2023-02-28T10:06:13;3.80;99.90
16767;DHT22;8501;49.926;8.404;2023-02-28T10:11:17;3.70;99.90
16767;DHT22;8501;49.926;8.404;2023-02-28T10:13:50;3.70;99.90
16767;DHT22;8501;49.926;8.404;2023-02-28T10:16:25;3.70;99.90
16767;DHT22;8501;49.926;8.404;2023-02-28T10:19:16;3.80;99.90
16767;DHT22;8501;49.926;8.404;2023-02-28T10:21:59;4.00;99.90
16767;DHT22;8501;49.926;8.404;2023-02-28T10:24:42;4.20;99.90
16767;DHT22;8501;49.926;8.404;2023-02-28T10:27:20;4.20;99.90
16767;DHT22;8501;49.926;8.404;2023-02-28T10:29:51;4.40;99.90
16767;DHT22;8501;49.926;8.404;2023-02-28T10:32:20;4.50;99.90
16767;DHT22;8501;49.926;8.404;2023-02-28T10:35:19;4.60;99.90
16767;DHT22;8501;49.926;8.404;2023-02-28T10:37:47;4.70;99.90
16767;DHT22;8501;49.926;8.404;2023-02-28T10:45:21;5.10;99.90
16767;DHT22;8501;49.926;8.404;2023-02-28T10:55:59;5.40;99.90
16767;DHT22;8501;49.926;8.404;2023-02-28T11:01:17;5.50;99.90
16767;DHT22;8501;49.926;8.404;2023-02-28T11:03:43;5.40;99.90
16767;DHT22;8501;49.926;8.404;2023-02-28T11:06:16;5.40;99.90
16767;DHT22;8501;49.926;8.404;2023-02-28T11:08:53;5.50;99.90
16767;DHT22;8501;49.926;8.404;2023-02-28T11:11:21;5.50;99.90
16767;DHT22;8501;49.926;8.404;2023-02-28T11:13:51;5.60;99.90
16767;DHT22;8501;49.926;8.404;2023-02-28T11:16:18;5.60;99.90
16767;DHT22;8501;49.926;8.404;2023-02-28T11:18:49;5.70;99.90
16767;DHT22;8501;49.926;8.404;2023-02-28T11:21:31;5.70;99.90
16767;DHT22;8501;49.926;8.404;2023-02-28T11:24:27;5.70;99.90
16767;DHT22;8501;49.926;8.404;2023-02-28T11:26:54;5.80;99.90
16767;DHT22;8501;49.926;8.404;2023-02-28T11:29:26;5.80;99.90
16767;DHT22;8501;49.926;8.404;2023-02-28T11:32:12;5.90;99.90
16767;DHT22;8501;49.926;8.404;2023-02-28T11:34:39;5.90;99.90
16767;DHT22;8501;49.926;8.404;2023-02-28T11:37:11;6.00;99.90
16767;DHT22;8501;49.926;8.404;2023-02-28T11:39:36;6.10;99.90
16767;DHT22;8501;49.926;8.404;2023-02-28T11:52:56;6.30;99.90
16767;DHT22;8501;49.926;8.404;2023-02-28T11:55:30;6.40;99.90
16767;DHT22;8501;49.926;8.404;2023-02-28T11:58:04;6.40;99.90
16767;DHT22;8501;49.926;8.404;2023-02-28T12:00:38;6.50;99.90
16767;DHT22;8501;49.926;8.404;2023-02-28T12:06:13;6.50;99.90
16767;DHT22;8501;49.926;8.404;2023-02-28T12:09:00;6.60;99.90
16767;DHT22;8501;49.926;8.404;2023-02-28T12:11:51;6.50;99.90
16767;DHT22;8501;49.926;8.404;2023-02-28T12:20:13;6.70;99.90
16767;DHT22;8501;49.926;8.404;2023-02-28T12:26:23;6.30;99.90
16767;DHT22;8501;49.926;8.404;2023-02-28T12:28:57;6.50;99.90
16767;DHT22;8501;49.926;8.404;2023-02-28T12:31:32;6.60;99.90
16767;DHT22;8501;49.926;8.404;2023-02-28T12:34:19;6.60;99.90
16767;DHT22;8501;49.926;8.404;2023-02-28T12:36:50;6.60;99.90
16767;DHT22;8501;49.926;8.404;2023-02-28T12:39:23;6.70;99.90
16767;DHT22;8501;49.926;8.404;2023-02-28T12:42:00;6.60;99.90
16767;DHT22;8501;49.926;8.404;2023-02-28T12:44:39;6.60;99.90
16767;DHT22;8501;49.926;8.404;2023-02-28T12:47:17;6.70;99.90
16767;DHT22;8501;49.926;8.404;2023-02-28T12:49:49;6.60;99.90
16767;DHT22;8501;49.926;8.404;2023-02-28T12:52:23;6.60;99.90
16767;DHT22;8501;49.926;8.404;2023-02-28T12:55:00;6.50;99.90
16767;DHT22;8501;49.926;8.404;2023-02-28T12:57:55;6.60;99.90
16767;DHT22;8501;49.926;8.404;2023-02-28T13:00:28;6.50;99.90
16767;DHT22;8501;49.926;8.404;2023-02-28T13:03:15;6.70;99.90
16767;DHT22;8501;49.926;8.404;2023-02-28T13:06:05;6.80;99.90
16767;DHT22;8501;49.926;8.404;2023-02-28T13:14:04;6.80;99.90
16767;DHT22;8501;49.926;8.404;2023-02-28T13:19:44;7.00;99.90
16767;DHT22;8501;49.926;8.404;2023-02-28T13:22:20;7.00;99.90
16767;DHT22;8501;49.926;8.404;2023-02-28T13:24:49;7.00;99.90
16767;DHT22;8501;49.926;8.404;2023-02-28T13:27:38;7.10;99.90
16767;DHT22;8501;49.926;8.404;2023-02-28T13:33:33;7.10;99.90
16767;DHT22;8501;49.926;8.404;2023-02-28T13:38:48;7.10;99.90
16767;DHT22;8501;49.926;8.404;2023-02-28T13:44:01;7.30;99.90
16767;DHT22;8501;49.926;8.404;2023-02-28T13:46:27;7.50;99.90
16767;DHT22;8501;49.926;8.404;2023-02-28T13:48:53;7.40;99.90
16767;DHT22;8501;49.926;8.404;2023-02-28T13:51:51;7.30;99.90
16767;DHT22;8501;49.926;8.404;2023-02-28T14:00:05;7.50;99.90
16767;DHT22;8501;49.926;8.404;2023-02-28T14:03:10;7.40;99.90
16767;DHT22;8501;49.926;8.404;2023-02-28T14:05:41;7.50;99.90
16767;DHT22;8501;49.926;8.404;2023-02-28T14:08:14;7.60;99.90
16767;DHT22;8501;49.926;8.404;2023-02-28T14:11:25;7.60;99.90
16767;DHT22;8501;49.926;8.404;2023-02-28T14:13:45;7.60;99.90
16767;DHT22;8501;49.926;8.404;2023-02-28T14:16:14;7.70;99.90
16767;DHT22;8501;49.926;8.404;2023-02-28T14:18:47;7.70;99.90
16767;DHT22;8501;49.926;8.404;2023-02-28T14:21:22;7.90;99.90
16767;DHT22;8501;49.926;8.404;2023-02-28T14:31:44;9.60;99.90
16767;DHT22;8501;49.926;8.404;2023-02-28T14:34:20;10.10;99.70
16767;DHT22;8501;49.926;8.404;2023-02-28T14:36:48;10.50;98.00
16767;DHT22;8501;49.926;8.404;2023-02-28T14:39:19;10.80;97.60
16767;DHT22;8501;49.926;8.404;2023-02-28T14:41:46;11.10;96.90
16767;DHT22;8501;49.926;8.404;2023-02-28T14:44:23;11.30;96.10
16767;DHT22;8501;49.926;8.404;2023-02-28T14:46:54;11.60;95.40
16767;DHT22;8501;49.926;8.404;2023-02-28T14:49:29;11.80;94.50
16767;DHT22;8501;49.926;8.404;2023-02-28T14:54:43;12.20;92.90
16767;DHT22;8501;49.926;8.404;2023-02-28T14:57:25;12.20;91.30
16767;DHT22;8501;49.926;8.404;2023-02-28T15:02:34;12.20;90.40
16767;DHT22;8501;49.926;8.404;2023-02-28T15:07:42;12.80;89.40
16767;DHT22;8501;49.926;8.404;2023-02-28T15:12:40;12.50;87.80
16767;DHT22;8501;49.926;8.404;2023-02-28T15:15:13;12.40;88.50
16767;DHT22;8501;49.926;8.404;2023-02-28T15:17:46;12.50;88.50
16767;DHT22;8501;49.926;8.404;2023-02-28T15:20:15;12.20;87.60
16767;DHT22;8501;49.926;8.404;2023-02-28T15:22:41;11.70;88.00
16767;DHT22;8501;49.926;8.404;2023-02-28T15:25:09;11.20;90.10
16767;DHT22;8501;49.926;8.404;2023-02-28T15:27:42;10.60;90.40
16767;DHT22;8501;49.926;8.404;2023-02-28T15:30:20;10.10;91.20
16767;DHT22;8501;49.926;8.404;2023-02-28T15:33:04;9.50;91.50
16767;DHT22;8501;49.926;8.404;2023-02-28T15:35:31;9.20;92.30
16767;DHT22;8501;49.926;8.404;2023-02-28T15:38:26;9.00;92.50
16767;DHT22;8501;49.926;8.404;2023-02-28T15:40:52;8.90;93.20
16767;DHT22;8501;49.926;8.404;2023-02-28T15:43:32;8.70;93.10
16767;DHT22;8501;49.926;8.404;2023-02-28T15:46:01;8.60;93.90
16767;DHT22;8501;49.926;8.404;2023-02-28T15:48:28;8.60;94.30
16767;DHT22;8501;49.926;8.404;2023-02-28T15:51:05;8.50;94.40
16767;DHT22;8501;49.926;8.404;2023-02-28T15:53:43;8.50;94.70
16767;DHT22;8501;49.926;8.404;2023-02-28T15:59:06;8.20;95.10
16767;DHT22;8501;49.926;8.404;2023-02-28T16:01:37;8.10;95.40
16767;DHT22;8501;49.926;8.404;2023-02-28T16:04:23;8.00;95.70
16767;DHT22;8501;49.926;8.404;2023-02-28T16:09:23;7.80;96.60
16767;DHT22;8501;49.926;8.404;2023-02-28T16:11:50;7.70;96.70
16767;DHT22;8501;49.926;8.404;2023-02-28T16:14:19;7.60;96.70
16767;DHT22;8501;49.926;8.404;2023-02-28T16:16:48;7.40;97.30
16767;DHT22;8501;49.926;8.404;2023-02-28T16:19:15;7.40;97.70
16767;DHT22;8501;49.926;8.404;2023-02-28T16:21:40;7.40;97.80
16767;DHT22;8501;49.926;8.404;2023-02-28T16:24:07;7.30;97.90
16767;DHT22;8501;49.926;8.404;2023-02-28T16:26:32;7.20;98.40
16767;DHT22;8501;49.926;8.404;2023-02-28T16:29:00;7.20;98.60
16767;DHT22;8501;49.926;8.404;2023-02-28T16:31:26;7.10;98.40
16767;DHT22;8501;49.926;8.404;2023-02-28T16:33:52;7.10;98.90
16767;DHT22;8501;49.926;8.404;2023-02-28T16:36:22;7.00;98.90
16767;DHT22;8501;49.926;8.404;2023-02-28T16:38:50;7.00;99.20
16767;DHT22;8501;49.926;8.404;2023-02-28T16:41:21;7.00;99.50
16767;DHT22;8501;49.926;8.404;2023-02-28T16:43:49;7.00;99.70
16767;DHT22;8501;49.926;8.404;2023-02-28T16:46:15;7.00;99.90
16767;DHT22;8501;49.926;8.404;2023-02-28T16:48:42;7.00;99.90
16767;DHT22;8501;49.926;8.404;2023-02-28T16:51:13;6.80;99.90
16767;DHT22;8501;49.926;8.404;2023-02-28T16:53:38;6.80;99.90
16767;DHT22;8501;49.926;8.404;2023-02-28T16:56:04;6.70;99.90
16767;DHT22;8501;49.926;8.404;2023-02-28T16:58:32;6.70;99.90
16767;DHT22;8501;49.926;8.404;2023-02-28T17:01:01;6.50;99.90
16767;DHT22;8501;49.926;8.404;2023-02-28T17:03:27;6.40;99.90
16767;DHT22;8501;49.926;8.404;2023-02-28T17:05:53;6.40;99.90
16767;DHT22;8501;49.926;8.404;2023-02-28T17:08:19;6.30;99.90
16767;DHT22;8501;49.926;8.404;2023-02-28T17:10:45;6.30;99.90
16767;DHT22;8501;49.926;8.404;2023-02-28T17:13:11;6.20;99.90
16767;DHT22;8501;49.926;8.404;2023-02-28T17:15:37;6.20;99.90
16767;DHT22;8501;49.926;8.404;2023-02-28T17:18:03;6.10;99.90
16767;DHT22;8501;49.926;8.404;2023-02-28T17:20:29;6.10;99.90
16767;DHT22;8501;49.926;8.404;2023-02-28T17:22:55;6.10;99.90
16767;DHT22;8501;49.926;8.404;2023-02-28T17:25:22;6.00;99.90
16767;DHT22;8501;49.926;8.404;2023-02-28T17:27:49;5.90;99.90
16767;DHT22;8501;49.926;8.404;2023-02-28T17:30:19;5.90;99.90
16767;DHT22;8501;49.926;8.404;2023-02-28T17:32:45;5.80;99.90
16767;DHT22;8501;49.926;8.404;2023-02-28T17:35:11;5.90;99.90
16767;DHT22;8501;49.926;8.404;2023-02-28T17:37:37;5.90;99.90
16767;DHT22;8501;49.926;8.404;2023-02-28T17:40:03;5.80;99.90
16767;DHT22;8501;49.926;8.404;2023-02-28T17:42:28;5.80;99.90
16767;DHT22;8501;49.926;8.404;2023-02-28T17:44:54;5.70;99.90
16767;DHT22;8501;49.926;8.404;2023-02-28T17:47:19;5.60;99.90
16767;DHT22;8501;49.926;8.404;2023-02-28T17:49:45;5.60;99.90
16767;DHT22;8501;49.926;8.404;2023-02-28T17:52:10;5.50;99.90
16767;DHT22;8501;49.926;8.404;2023-02-28T17:54:36;5.70;99.90
16767;DHT22;8501;49.926;8.404;2023-02-28T17:57:01;5.50;99.90
16767;DHT22;8501;49.926;8.404;2023-02-28T17:59:27;5.40;99.90
16767;DHT22;8501;49.926;8.404;2023-02-28T18:02:00;5.40;99.90
16767;DHT22;8501;49.926;8.404;2023-02-28T18:04:25;5.40;99.90
16767;DHT22;8501;49.926;8.404;2023-02-28T18:06:53;5.30;99.90
16767;DHT22;8501;49.926;8.404;2023-02-28T18:09:20;5.30;99.90
16767;DHT22;8501;49.926;8.404;2023-02-28T18:11:50;5.30;99.90
16767;DHT22;8501;49.926;8.404;2023-02-28T18:14:17;5.30;99.90
16767;DHT22;8501;49.926;8.404;2023-02-28T18:16:44;5.20;99.90